Time,TemperatureF,DewpointF,PressureIn,WindDirection,WindDirectionDegrees,WindSpeedMPH,WindSpeedGustMPH,Humidity,HourlyPrecipIn,Conditions,Clouds,dailyrainin,SoftwareType,DateUTC
2013-09-11 00:03:00,70.1,61.8,30.15,NNW,328,4.6,4.6,75,0.00,RA,,0.00,WeatherDisplay:10.37,2013-09-10 22:03:00,
2013-09-11 00:08:00,70.1,61.8,30.15,NW,316,4.0,4.0,75,0.00,RA,,0.00,WeatherDisplay:10.37,2013-09-10 22:08:00,
2013-09-11 00:13:00,70.0,61.7,30.15,NW,316,3.5,3.5,75,0.00,CLR,,0.00,WeatherDisplay:10.37,2013-09-10 22:13:00,
2013-09-11 00:18:00,70.0,61.7,30.15,NW,325,5.8,5.8,75,0.00,CLR,,0.00,WeatherDisplay:10.37,2013-09-10 22:18:00,
2013-09-11 00:23:00,70.0,62.1,30.15,NW,311,3.5,3.5,76,0.00,CLR,,0.00,WeatherDisplay:10.37,2013-09-10 22:23:00,
2013-09-11 00:28:00,70.1,62.6,30.15,NW,305,4.6,4.6,77,0.00,CLR,,0.00,WeatherDisplay:10.37,2013-09-10 22:28:00,
2013-09-11 00:33:00,70.2,62.6,30.15,NW,311,4.6,4.6,77,0.00,CLR,,0.00,WeatherDisplay:10.37,2013-09-10 22:33:00,
2013-09-11 00:38:00,70.1,62.9,30.15,NW,325,5.0,5.0,78,0.00,CLR,,0.00,WeatherDisplay:10.37,2013-09-10 22:38:00,
2013-09-11 00:43:00,70.2,63.4,30.14,NW,318,4.6,4.6,79,0.00,CLR,,0.00,WeatherDisplay:10.37,2013-09-10 22:43:00,
2013-09-11 00:48:00,70.1,63.3,30.15,NW,321,6.0,6.0,79,0.00,CLR,,0.00,WeatherDisplay:10.37,2013-09-10 22:48:00,
2013-09-11 00:53:00,70.0,63.5,30.15,NW,326,3.5,3.5,80,0.00,CLR,,0.00,WeatherDisplay:10.37,2013-09-10 22:53:00,
2013-09-11 00:58:00,69.8,63.3,30.14,NNW,345,3.5,3.5,80,0.00,CLR,,0.00,WeatherDisplay:10.37,2013-09-10 22:58:00,
2013-09-11 01:03:00,69.5,63.1,30.14,North,10,3.5,3.5,80,0.00,CLR,,0.00,WeatherDisplay:10.37,2013-09-10 23:03:00,
2013-09-11 01:08:00,69.3,62.9,30.14,NW,325,2.0,2.0,80,0.00,CLR,,0.00,WeatherDisplay:10.37,2013-09-10 23:08:00,
2013-09-11 01:13:00,69.3,63.2,30.14,NNW,327,4.6,4.6,81,0.00,CLR,,0.00,WeatherDisplay:10.37,2013-09-10 23:13:00,
2013-09-11 01:18:00,69.2,63.1,30.14,NW,309,4.6,4.6,81,0.00,CLR,,0.00,WeatherDisplay:10.37,2013-09-10 23:18:00,
2013-09-11 01:23:00,69.1,63.4,30.14,NW,323,3.5,3.5,82,0.00,CLR,,0.00,WeatherDisplay:10.37,2013-09-10 23:23:00,
2013-09-11 01:28:00,69.2,63.5,30.14,NNW,333,4.0,4.0,82,0.00,CLR,,0.00,WeatherDisplay:10.37,2013-09-10 23:28:00,
2013-09-11 01:33:00,69.2,63.5,30.14,NNW,347,3.5,3.5,82,0.00,CLR,,0.00,WeatherDisplay:10.37,2013-09-10 23:33:00,
2013-09-11 01:38:00,69.0,63.3,30.14,NNE,12,3.5,3.5,82,0.00,CLR,,0.00,WeatherDisplay:10.37,2013-09-10 23:38:00,
2013-09-11 01:43:00,68.8,63.1,30.14,NNE,12,3.5,3.5,82,0.00,CLR,,0.00,WeatherDisplay:10.37,2013-09-10 23:43:00,
2013-09-11 01:48:00,68.7,63.0,30.14,North,5,2.3,2.3,82,0.00,CLR,,0.00,WeatherDisplay:10.37,2013-09-10 23:48:00,
2013-09-11 01:53:00,68.8,63.4,30.14,North,355,2.3,2.3,83,0.00,CLR,,0.00,WeatherDisplay:10.37,2013-09-10 23:53:00,
2013-09-11 01:58:00,68.9,63.2,30.14,North,355,1.2,1.2,82,0.00,CLR,,0.00,WeatherDisplay:10.37,2013-09-10 23:58:00,
2013-09-11 02:03:00,69.0,63.6,30.13,North,355,0.0,0.0,83,0.00,CLR,,0.00,WeatherDisplay:10.37,2013-09-11 00:03:00,
2013-09-11 02:08:00,69.0,63.3,30.13,North,355,0.0,0.0,82,0.00,CLR,,0.00,WeatherDisplay:10.37,2013-09-11 00:08:00,
2013-09-11 02:13:00,68.9,63.2,30.13,North,355,2.3,2.3,82,0.00,CLR,,0.00,WeatherDisplay:10.37,2013-09-11 00:13:00,
2013-09-11 02:18:00,68.6,62.9,30.13,North,355,1.2,1.2,82,0.00,CLR,,0.00,WeatherDisplay:10.37,2013-09-11 00:18:00,
2013-09-11 02:23:00,68.6,62.9,30.13,North,355,0.0,0.0,82,0.00,CLR,,0.00,WeatherDisplay:10.37,2013-09-11 00:23:00,
2013-09-11 02:28:00,68.5,62.8,30.13,North,355,2.3,2.3,82,0.00,CLR,,0.00,WeatherDisplay:10.37,2013-09-11 00:28:00,
2013-09-11 02:33:00,68.4,63.0,30.13,North,5,2.3,2.3,83,0.00,CLR,,0.00,WeatherDisplay:10.37,2013-09-11 00:33:00,
2013-09-11 02:38:00,68.4,63.0,30.13,NNE,13,2.3,2.3,83,0.00,CLR,,0.00,WeatherDisplay:10.37,2013-09-11 00:38:00,
2013-09-11 02:43:00,68.3,62.9,30.13,NNE,13,1.2,1.2,83,0.00,CLR,,0.00,WeatherDisplay:10.37,2013-09-11 00:43:00,
2013-09-11 02:48:00,68.2,62.8,30.13,NNE,13,2.3,2.3,83,0.00,CLR,,0.00,WeatherDisplay:10.37,2013-09-11 00:48:00,
2013-09-11 02:53:00,68.2,63.2,30.13,North,11,2.3,2.3,84,0.00,CLR,,0.00,WeatherDisplay:10.37,2013-09-11 00:53:00,
2013-09-11 02:58:00,68.1,63.1,30.13,North,5,2.3,2.3,84,0.00,CLR,,0.00,WeatherDisplay:10.37,2013-09-11 00:58:00,
2013-09-11 03:03:00,68.1,63.1,30.13,North,355,2.3,2.3,84,0.00,CLR,,0.00,WeatherDisplay:10.37,2013-09-11 01:03:00,
2013-09-11 03:08:00,68.1,63.1,30.13,North,355,1.0,1.0,84,0.00,CLR,,0.00,WeatherDisplay:10.37,2013-09-11 01:08:00,
2013-09-11 03:13:00,68.1,63.4,30.13,North,5,2.3,2.3,85,0.00,CLR,,0.00,WeatherDisplay:10.37,2013-09-11 01:13:00,
2013-09-11 03:18:00,68.2,63.2,30.13,North,5,2.3,2.3,84,0.00,CLR,,0.00,WeatherDisplay:10.37,2013-09-11 01:18:00,
2013-09-11 03:23:00,68.2,63.5,30.13,North,5,2.3,2.3,85,0.00,CLR,,0.00,WeatherDisplay:10.37,2013-09-11 01:23:00,
2013-09-11 03:28:00,68.1,63.4,30.13,North,5,2.3,2.3,85,0.00,CLR,,0.00,WeatherDisplay:10.37,2013-09-11 01:28:00,
2013-09-11 03:33:00,68.1,63.4,30.12,North,355,3.5,3.5,85,0.00,CLR,,0.00,WeatherDisplay:10.37,2013-09-11 01:33:00,
2013-09-11 03:38:00,68.1,63.4,30.12,North,355,2.0,2.0,85,0.00,CLR,,0.00,WeatherDisplay:10.37,2013-09-11 01:38:00,
2013-09-11 03:43:00,68.1,63.4,30.12,North,351,3.5,3.5,85,0.00,CLR,,0.00,WeatherDisplay:10.37,2013-09-11 01:43:00,
2013-09-11 03:48:00,68.0,63.3,30.12,North,355,2.3,2.3,85,0.00,CLR,,0.00,WeatherDisplay:10.37,2013-09-11 01:48:00,
2013-09-11 03:53:00,67.9,63.2,30.12,North,355,3.5,3.5,85,0.00,CLR,,0.00,WeatherDisplay:10.37,2013-09-11 01:53:00,
2013-09-11 03:58:00,67.8,63.5,30.12,North,360,2.3,2.3,86,0.00,CLR,,0.00,WeatherDisplay:10.37,2013-09-11 01:58:00,
2013-09-11 04:03:00,67.7,63.4,30.12,North,360,2.3,2.3,86,0.00,CLR,,0.00,WeatherDisplay:10.37,2013-09-11 02:03:00,
2013-09-11 04:08:00,67.6,63.3,30.12,North,360,2.0,2.0,86,0.00,CLR,,0.00,WeatherDisplay:10.37,2013-09-11 02:08:00,
2013-09-11 04:13:00,67.6,63.3,30.12,North,360,2.3,2.3,86,0.00,CLR,,0.00,WeatherDisplay:10.37,2013-09-11 02:13:00,
2013-09-11 04:18:00,67.6,63.3,30.11,North,360,1.2,1.2,86,0.00,CLR,,0.00,WeatherDisplay:10.37,2013-09-11 02:18:00,
2013-09-11 04:23:00,67.5,63.2,30.11,North,360,2.3,2.3,86,0.00,CLR,,0.00,WeatherDisplay:10.37,2013-09-11 02:23:00,
2013-09-11 04:28:00,67.6,63.6,30.11,North,355,2.3,2.3,87,0.00,CLR,,0.00,WeatherDisplay:10.37,2013-09-11 02:28:00,
2013-09-11 04:33:00,67.6,63.6,30.11,NNW,342,3.5,3.5,87,0.00,CLR,,0.00,WeatherDisplay:10.37,2013-09-11 02:33:00,
2013-09-11 04:38:00,67.6,63.6,30.11,NW,311,3.5,3.5,87,0.00,CLR,,0.00,WeatherDisplay:10.37,2013-09-11 02:38:00,
2013-09-11 04:43:00,67.6,63.6,30.12,NW,311,0.0,0.0,87,0.00,CLR,,0.00,WeatherDisplay:10.37,2013-09-11 02:43:00,
2013-09-11 04:48:00,67.7,63.7,30.12,NW,312,0.0,0.0,87,0.00,CLR,,0.00,WeatherDisplay:10.37,2013-09-11 02:48:00,
2013-09-11 04:53:00,67.8,63.8,30.11,NW,320,2.3,2.3,87,0.00,CLR,,0.00,WeatherDisplay:10.37,2013-09-11 02:53:00,
2013-09-11 04:58:00,67.9,63.9,30.11,ENE,59,2.3,2.3,87,0.00,CLR,,0.00,WeatherDisplay:10.37,2013-09-11 02:58:00,
2013-09-11 05:03:00,67.9,63.9,30.11,North,5,3.5,3.5,87,0.00,CLR,,0.00,WeatherDisplay:10.37,2013-09-11 03:03:00,
2013-09-11 05:08:00,67.9,64.2,30.11,NNE,26,6.0,6.0,88,0.00,CLR,,0.00,WeatherDisplay:10.37,2013-09-11 03:08:00,
2013-09-11 05:13:00,67.9,64.2,30.11,NE,34,8.1,8.1,88,0.00,CLR,,0.00,WeatherDisplay:10.37,2013-09-11 03:13:00,
2013-09-11 05:18:00,68.0,64.6,30.12,NE,52,5.8,5.8,89,0.00,CLR,,0.00,WeatherDisplay:10.37,2013-09-11 03:18:00,
2013-09-11 05:24:00,68.4,65.0,30.13,NE,50,9.2,9.2,89,0.00,CLR,,0.00,WeatherDisplay:10.37,2013-09-11 03:24:00,
2013-09-11 05:29:00,68.5,63.8,30.13,North,355,9.2,9.2,85,0.00,CLR,,0.00,WeatherDisplay:10.37,2013-09-11 03:29:00,
2013-09-11 05:34:00,68.2,63.2,30.13,NNE,16,11.5,11.5,84,0.06,RA,,0.06,WeatherDisplay:10.37,2013-09-11 03:34:00,
2013-09-11 05:39:00,66.7,62.0,30.14,North,10,13.8,13.8,85,0.15,RA,,0.15,WeatherDisplay:10.37,2013-09-11 03:39:00,
2013-09-11 05:44:00,64.7,60.7,30.14,North,10,17.0,17.0,87,0.32,RA,,0.33,WeatherDisplay:10.37,2013-09-11 03:44:00,
2013-09-11 05:49:00,63.8,60.5,30.13,NE,48,21.9,21.9,89,0.41,RA,,0.43,WeatherDisplay:10.37,2013-09-11 03:49:00,
2013-09-11 05:54:00,63.8,60.8,30.13,NE,55,10.4,10.4,90,0.50,RA,,0.50,WeatherDisplay:10.37,2013-09-11 03:54:00,
2013-09-11 05:59:00,64.0,61.3,30.13,East,80,12.7,12.7,91,0.57,RA,,0.57,WeatherDisplay:10.37,2013-09-11 03:59:00,
2013-09-11 06:01:00,64.0,61.3,30.13,ENE,78,17.0,17.0,91,0.57,RA,,0.57,WeatherDisplay:10.37,2013-09-11 04:01:00,
2013-09-11 06:02:00,64.2,61.5,30.14,ENE,61,17.3,17.3,91,0.57,RA,,0.57,WeatherDisplay:10.37,2013-09-11 04:02:00,
2013-09-11 06:04:00,64.2,61.5,30.14,East,100,12.7,12.7,91,0.59,RA,,0.59,WeatherDisplay:10.37,2013-09-11 04:04:00,
2013-09-11 06:09:00,64.4,62.0,30.15,East,84,10.4,10.4,92,0.60,RA,,0.61,WeatherDisplay:10.37,2013-09-11 04:09:00,
2013-09-11 06:14:00,64.4,62.0,30.14,NE,42,11.5,11.5,92,0.64,RA,,0.64,WeatherDisplay:10.37,2013-09-11 04:14:00,
2013-09-11 06:19:00,64.4,62.0,30.14,NNE,22,9.2,9.2,92,0.67,RA,,0.67,WeatherDisplay:10.37,2013-09-11 04:19:00,
2013-09-11 06:24:00,64.4,62.3,30.14,ENE,65,8.1,8.1,93,0.69,RA,,0.70,WeatherDisplay:10.37,2013-09-11 04:24:00,
2013-09-11 06:29:00,64.4,62.3,30.14,ENE,65,7.0,7.0,93,0.76,RA,,0.76,WeatherDisplay:10.37,2013-09-11 04:29:00,
2013-09-11 06:34:00,64.5,62.4,30.14,East,89,6.9,6.9,93,0.76,RA,,0.76,WeatherDisplay:10.37,2013-09-11 04:34:00,
2013-09-11 06:39:00,64.5,62.4,30.14,ENE,76,5.0,5.0,93,0.76,RA,,0.76,WeatherDisplay:10.37,2013-09-11 04:39:00,
2013-09-11 06:44:00,64.5,62.4,30.14,ENE,67,6.9,6.9,93,0.77,RA,,0.77,WeatherDisplay:10.37,2013-09-11 04:44:00,
2013-09-11 06:49:00,64.4,62.3,30.14,ESE,117,5.8,5.8,93,0.75,RA,,0.80,WeatherDisplay:10.37,2013-09-11 04:49:00,
2013-09-11 06:54:00,64.5,62.4,30.15,SSE,156,1.2,1.2,93,0.65,RA,,0.80,WeatherDisplay:10.37,2013-09-11 04:54:00,
2013-09-11 06:59:00,64.5,62.4,30.16,SSE,156,0.0,0.0,93,0.47,RA,,0.80,WeatherDisplay:10.37,2013-09-11 04:59:00,
2013-09-11 07:04:00,64.5,62.4,30.15,SSE,148,1.2,1.2,93,0.40,RA,,0.81,WeatherDisplay:10.37,2013-09-11 05:04:00,
2013-09-11 07:09:00,64.4,62.3,30.15,ENE,61,3.5,3.5,93,0.31,RA,,0.81,WeatherDisplay:10.37,2013-09-11 05:09:00,
2013-09-11 07:14:00,64.3,62.2,30.16,NNE,31,3.5,3.5,93,0.24,RA,,0.82,WeatherDisplay:10.37,2013-09-11 05:14:00,
2013-09-11 07:19:00,64.3,62.2,30.15,NE,41,5.8,5.8,93,0.23,RA,,0.82,WeatherDisplay:10.37,2013-09-11 05:19:00,
2013-09-11 07:24:00,64.3,62.5,30.15,NNE,16,3.5,3.5,94,0.23,RA,,0.83,WeatherDisplay:10.37,2013-09-11 05:24:00,
2013-09-11 07:29:00,64.4,62.6,30.16,NE,42,5.0,5.0,94,0.19,RA,,0.83,WeatherDisplay:10.37,2013-09-11 05:29:00,
2013-09-11 07:34:00,64.5,62.7,30.16,NE,56,1.2,0.0,94,0.16,,,0.83,WeatherDisplay:10.37,2013-09-11 05:34:00,
2013-09-11 07:40:00,64.6,62.8,30.16,NE,56,1.2,0.0,94,0.13,CLR,,0.83,WeatherDisplay:10.37,2013-09-11 05:40:00,
2013-09-11 07:45:00,64.5,62.7,30.16,NE,56,0.0,0.0,94,0.07,RA,,0.83,WeatherDisplay:10.37,2013-09-11 05:45:00,
2013-09-11 07:50:00,64.5,62.7,30.16,NE,56,1.2,0.0,94,0.07,RA,,0.83,WeatherDisplay:10.37,2013-09-11 05:50:00,
2013-09-11 07:55:00,64.5,62.7,30.16,NNE,18,2.3,2.3,94,0.07,,,0.83,WeatherDisplay:10.37,2013-09-11 05:55:00,
2013-09-11 08:00:00,64.5,62.7,30.16,NE,43,2.3,2.3,94,0.06,CLR,,0.83,WeatherDisplay:10.37,2013-09-11 06:00:00,
2013-09-11 08:05:00,64.6,62.8,30.17,SSE,167,3.5,3.5,94,0.05,CLR,,0.83,WeatherDisplay:10.37,2013-09-11 06:05:00,
2013-09-11 08:10:00,64.6,62.8,30.17,SSE,167,2.3,2.3,94,0.04,CLR,,0.83,WeatherDisplay:10.37,2013-09-11 06:10:00,
2013-09-11 08:15:00,64.6,62.8,30.16,SSE,167,1.2,1.2,94,0.05,RA,,0.84,WeatherDisplay:10.37,2013-09-11 06:15:00,
2013-09-11 08:20:00,64.6,62.8,30.16,SSE,167,0.0,0.0,94,0.03,RA,,0.84,WeatherDisplay:10.37,2013-09-11 06:20:00,
2013-09-11 08:25:00,64.6,62.8,30.17,SSE,167,0.0,0.0,94,0.03,,,0.84,WeatherDisplay:10.37,2013-09-11 06:25:00,
2013-09-11 08:30:00,64.7,62.9,30.17,WNW,296,2.3,2.3,94,0.03,CLR,,0.84,WeatherDisplay:10.37,2013-09-11 06:30:00,
2013-09-11 08:35:00,64.7,62.9,30.17,WNW,296,1.2,0.0,94,0.02,CLR,,0.84,WeatherDisplay:10.37,2013-09-11 06:35:00,
2013-09-11 08:40:00,64.9,63.1,30.17,NW,320,2.3,2.3,94,0.02,CLR,,0.84,WeatherDisplay:10.37,2013-09-11 06:40:00,
2013-09-11 08:45:00,65.0,63.2,30.17,NNW,327,3.5,3.5,94,0.02,CLR,,0.84,WeatherDisplay:10.37,2013-09-11 06:45:00,
2013-09-11 08:50:00,65.2,63.4,30.17,NW,321,3.5,3.5,94,0.02,CLR,,0.84,WeatherDisplay:10.37,2013-09-11 06:50:00,
2013-09-11 08:55:00,65.3,63.5,30.17,NNW,338,3.5,3.5,94,0.02,CLR,,0.84,WeatherDisplay:10.37,2013-09-11 06:55:00,
2013-09-11 09:00:00,65.5,63.7,30.17,NW,322,3.5,3.5,94,0.01,CLR,,0.84,WeatherDisplay:10.37,2013-09-11 07:00:00,
2013-09-11 09:05:00,65.7,63.9,30.17,North,355,4.6,4.6,94,0.01,CLR,,0.84,WeatherDisplay:10.37,2013-09-11 07:05:00,
2013-09-11 09:10:00,66.0,64.2,30.17,North,5,4.6,4.6,94,0.01,CLR,,0.84,WeatherDisplay:10.37,2013-09-11 07:10:00,
2013-09-11 09:15:00,66.2,64.4,30.16,NNW,330,3.5,3.5,94,0.01,CLR,,0.84,WeatherDisplay:10.37,2013-09-11 07:15:00,
2013-09-11 09:20:00,66.4,64.6,30.17,NW,315,4.6,4.6,94,0.01,CLR,,0.84,WeatherDisplay:10.37,2013-09-11 07:20:00,
2013-09-11 09:25:00,66.7,64.9,30.17,NW,308,3.5,3.5,94,0.01,CLR,,0.84,WeatherDisplay:10.37,2013-09-11 07:25:00,
2013-09-11 09:30:00,66.6,64.8,30.17,NW,325,3.5,3.5,94,0.00,CLR,,0.84,WeatherDisplay:10.37,2013-09-11 07:30:00,
2013-09-11 09:35:00,66.7,64.9,30.17,NW,315,3.5,3.5,94,0.00,CLR,,0.84,WeatherDisplay:10.37,2013-09-11 07:35:00,
2013-09-11 09:40:00,66.8,65.0,30.16,NW,309,5.8,5.8,94,0.00,CLR,,0.84,WeatherDisplay:10.37,2013-09-11 07:40:00,
2013-09-11 09:45:00,67.1,65.3,30.16,NW,306,3.5,3.5,94,0.00,CLR,,0.84,WeatherDisplay:10.37,2013-09-11 07:45:00,
2013-09-11 09:50:00,67.5,65.7,30.17,NW,314,3.5,3.5,94,0.00,CLR,,0.84,WeatherDisplay:10.37,2013-09-11 07:50:00,
2013-09-11 09:55:00,67.8,66.0,30.16,NNW,328,4.6,4.6,94,0.00,CLR,,0.84,WeatherDisplay:10.37,2013-09-11 07:55:00,
2013-09-11 10:00:00,68.2,66.1,30.16,NNE,31,6.9,6.9,93,0.00,CLR,,0.84,WeatherDisplay:10.37,2013-09-11 08:00:00,
2013-09-11 10:05:00,68.7,66.3,30.16,NE,37,5.8,5.8,92,0.00,CLR,,0.84,WeatherDisplay:10.37,2013-09-11 08:05:00,
2013-09-11 10:10:00,69.1,66.4,30.16,NNE,25,5.8,5.8,91,0.00,CLR,,0.84,WeatherDisplay:10.37,2013-09-11 08:10:00,
2013-09-11 10:15:00,69.2,65.8,30.16,NE,55,6.9,6.9,89,0.00,CLR,,0.84,WeatherDisplay:10.37,2013-09-11 08:15:00,
2013-09-11 10:20:00,69.5,65.8,30.16,NE,53,6.9,6.9,88,0.00,CLR,,0.84,WeatherDisplay:10.37,2013-09-11 08:20:00,
2013-09-11 10:25:00,69.7,65.7,30.17,NE,50,5.8,5.8,87,0.00,CLR,,0.84,WeatherDisplay:10.37,2013-09-11 08:25:00,
2013-09-11 10:30:00,69.9,65.9,30.17,ENE,65,5.0,5.0,87,0.00,CLR,,0.84,WeatherDisplay:10.37,2013-09-11 08:30:00,
2013-09-11 10:35:00,70.4,66.0,30.17,ENE,57,5.8,5.8,86,0.00,CLR,,0.84,WeatherDisplay:10.37,2013-09-11 08:35:00,
2013-09-11 10:40:00,70.8,66.4,30.17,NE,46,8.1,8.1,86,0.00,CLR,,0.84,WeatherDisplay:10.37,2013-09-11 08:40:00,
2013-09-11 10:45:00,71.2,66.5,30.17,East,99,6.0,6.0,85,0.00,CLR,,0.84,WeatherDisplay:10.37,2013-09-11 08:45:00,
2013-09-11 10:50:00,71.5,66.8,30.17,North,5,10.4,10.4,85,0.00,CLR,,0.84,WeatherDisplay:10.37,2013-09-11 08:50:00,
2013-09-11 10:55:00,71.7,66.6,30.17,NNE,31,5.8,5.8,84,0.00,CLR,,0.84,WeatherDisplay:10.37,2013-09-11 08:55:00,
2013-09-11 11:00:00,72.2,67.1,30.17,NE,52,3.5,3.5,84,0.00,CLR,,0.84,WeatherDisplay:10.37,2013-09-11 09:00:00,
2013-09-11 11:05:00,72.6,67.1,30.17,ENE,61,6.9,6.9,83,0.00,CLR,,0.84,WeatherDisplay:10.37,2013-09-11 09:05:00,
2013-09-11 11:10:00,72.8,65.9,30.17,ENE,72,9.2,9.2,79,0.00,CLR,,0.84,WeatherDisplay:10.37,2013-09-11 09:10:00,
2013-09-11 11:15:00,72.6,66.1,30.17,East,83,9.2,9.2,80,0.00,CLR,,0.84,WeatherDisplay:10.37,2013-09-11 09:15:00,
2013-09-11 11:20:00,72.7,65.8,30.17,NE,42,11.5,11.5,79,0.00,CLR,,0.84,WeatherDisplay:10.37,2013-09-11 09:20:00,
2013-09-11 11:25:00,73.0,66.1,30.17,East,96,11.0,11.0,79,0.00,CLR,,0.84,WeatherDisplay:10.37,2013-09-11 09:25:00,
2013-09-11 11:30:00,73.0,65.7,30.17,East,88,8.1,8.1,78,0.00,CLR,,0.84,WeatherDisplay:10.37,2013-09-11 09:30:00,
2013-09-11 11:36:00,73.3,66.0,30.17,NNE,19,9.2,9.2,78,0.00,CLR,,0.84,WeatherDisplay:10.37,2013-09-11 09:36:00,
2013-09-11 11:41:00,73.5,65.8,30.17,ENE,59,10.4,10.4,77,0.00,CLR,,0.84,WeatherDisplay:10.37,2013-09-11 09:41:00,
2013-09-11 11:46:00,73.5,65.5,30.17,NE,46,9.2,9.2,76,0.00,CLR,,0.84,WeatherDisplay:10.37,2013-09-11 09:46:00,
2013-09-11 11:51:00,73.5,65.5,30.18,NE,44,11.5,11.5,76,0.00,CLR,,0.84,WeatherDisplay:10.37,2013-09-11 09:51:00,
2013-09-11 11:56:00,73.7,66.0,30.18,East,82,11.5,11.5,77,0.00,CLR,,0.84,WeatherDisplay:10.37,2013-09-11 09:56:00,
2013-09-11 12:01:00,73.7,65.3,30.18,East,90,9.2,9.2,75,0.00,CLR,,0.84,WeatherDisplay:10.37,2013-09-11 10:01:00,
2013-09-11 12:06:00,73.6,65.9,30.18,East,80,8.1,8.1,77,0.00,CLR,,0.84,WeatherDisplay:10.37,2013-09-11 10:06:00,
2013-09-11 12:11:00,73.7,66.0,30.18,NE,36,9.2,9.2,77,0.00,CLR,,0.84,WeatherDisplay:10.37,2013-09-11 10:11:00,
2013-09-11 12:16:00,73.5,65.8,30.18,NE,56,10.4,10.4,77,0.00,CLR,,0.84,WeatherDisplay:10.37,2013-09-11 10:16:00,
2013-09-11 12:21:00,73.2,65.6,30.19,NE,53,10.4,10.4,77,0.00,CLR,,0.84,WeatherDisplay:10.37,2013-09-11 10:21:00,
2013-09-11 12:26:00,73.1,65.8,30.18,NNE,31,8.1,8.1,78,0.00,CLR,,0.84,WeatherDisplay:10.37,2013-09-11 10:26:00,
2013-09-11 12:31:00,73.3,66.4,30.18,NE,43,5.8,5.8,79,0.00,CLR,,0.84,WeatherDisplay:10.37,2013-09-11 10:31:00,
2013-09-11 12:36:00,73.5,66.2,30.18,NE,47,6.9,6.9,78,0.00,CLR,,0.84,WeatherDisplay:10.37,2013-09-11 10:36:00,
2013-09-11 12:41:00,73.5,65.5,30.18,ENE,69,11.5,11.5,76,0.00,CLR,,0.84,WeatherDisplay:10.37,2013-09-11 10:41:00,
2013-09-11 12:46:00,73.4,65.4,30.18,ENE,71,5.8,5.8,76,0.00,CLR,,0.84,WeatherDisplay:10.37,2013-09-11 10:46:00,
2013-09-11 12:51:00,73.5,65.5,30.18,East,81,2.3,2.6,76,0.00,CLR,,0.84,WeatherDisplay:10.37,2013-09-11 10:51:00,
2013-09-11 12:56:00,73.6,65.6,30.18,ENE,57,6.9,6.9,76,0.00,CLR,,0.84,WeatherDisplay:10.37,2013-09-11 10:56:00,
2013-09-11 13:01:00,74.1,65.7,30.18,NE,47,10.4,10.4,75,0.00,CLR,,0.84,WeatherDisplay:10.37,2013-09-11 11:01:00,
2013-09-11 13:06:00,74.3,65.5,30.18,NNW,345,9.2,9.2,74,0.00,CLR,,0.84,WeatherDisplay:10.37,2013-09-11 11:06:00,
2013-09-11 13:11:00,74.4,65.2,30.18,NE,42,10.4,10.4,73,0.00,CLR,,0.84,WeatherDisplay:10.37,2013-09-11 11:11:00,
2013-09-11 13:16:00,74.1,64.9,30.17,NNW,347,17.3,17.3,73,0.00,CLR,,0.84,WeatherDisplay:10.37,2013-09-11 11:16:00,
2013-09-11 13:21:00,73.5,64.7,30.17,NE,48,11.5,11.5,74,0.00,CLR,,0.84,WeatherDisplay:10.37,2013-09-11 11:21:00,
2013-09-11 13:26:00,73.4,64.6,30.17,ENE,72,13.8,13.8,74,0.00,CLR,,0.84,WeatherDisplay:10.37,2013-09-11 11:26:00,
2013-09-11 13:32:00,73.6,65.2,30.17,ENE,57,11.5,11.5,75,0.00,CLR,,0.84,WeatherDisplay:10.37,2013-09-11 11:32:00,
2013-09-11 13:37:00,73.7,64.9,30.16,NNE,14,11.5,11.5,74,0.00,CLR,,0.84,WeatherDisplay:10.37,2013-09-11 11:37:00,
2013-09-11 13:42:00,74.1,65.3,30.16,NE,40,6.9,6.9,74,0.00,CLR,,0.84,WeatherDisplay:10.37,2013-09-11 11:42:00,
2013-09-11 13:47:00,74.9,65.7,30.16,NE,44,9.2,9.2,73,0.00,CLR,,0.84,WeatherDisplay:10.37,2013-09-11 11:47:00,
2013-09-11 13:52:00,75.0,65.0,30.16,NE,53,11.5,11.5,71,0.00,CLR,,0.84,WeatherDisplay:10.37,2013-09-11 11:52:00,
2013-09-11 13:57:00,75.0,64.5,30.16,ENE,57,11.5,11.5,70,0.00,CLR,,0.84,WeatherDisplay:10.37,2013-09-11 11:57:00,
2013-09-11 14:02:00,75.1,65.9,30.16,NE,49,11.5,11.5,73,0.00,CLR,,0.84,WeatherDisplay:10.37,2013-09-11 12:02:00,
2013-09-11 14:07:00,74.9,65.3,30.16,ENE,66,11.5,11.5,72,0.00,CLR,,0.84,WeatherDisplay:10.37,2013-09-11 12:07:00,
2013-09-11 14:12:00,74.6,65.4,30.16,NNE,24,10.4,10.4,73,0.00,CLR,,0.84,WeatherDisplay:10.37,2013-09-11 12:12:00,
2013-09-11 14:17:00,74.5,65.3,30.16,ENE,57,11.5,11.5,73,0.00,CLR,,0.84,WeatherDisplay:10.37,2013-09-11 12:17:00,
2013-09-11 14:22:00,74.6,65.8,30.16,NNE,32,10.4,10.4,74,0.00,CLR,,0.84,WeatherDisplay:10.37,2013-09-11 12:22:00,
2013-09-11 14:27:00,74.9,65.3,30.15,NE,45,12.7,12.7,72,0.00,CLR,,0.84,WeatherDisplay:10.37,2013-09-11 12:27:00,
2013-09-11 14:32:00,74.9,65.7,30.15,ENE,63,12.7,12.7,73,0.00,CLR,,0.84,WeatherDisplay:10.37,2013-09-11 12:32:00,
2013-09-11 14:37:00,75.2,65.1,30.15,NE,43,9.2,9.2,71,0.00,CLR,,0.84,WeatherDisplay:10.37,2013-09-11 12:37:00,
2013-09-11 14:42:00,75.2,64.7,30.15,ENE,60,13.0,13.0,70,0.00,CLR,,0.84,WeatherDisplay:10.37,2013-09-11 12:42:00,
2013-09-11 14:47:00,75.3,65.2,30.15,NNE,12,11.5,11.5,71,0.00,CLR,,0.84,WeatherDisplay:10.37,2013-09-11 12:47:00,
2013-09-11 14:52:00,75.2,65.6,30.15,East,100,15.0,15.0,72,0.00,CLR,,0.84,WeatherDisplay:10.37,2013-09-11 12:52:00,
2013-09-11 14:57:00,75.3,65.2,30.15,NE,42,12.7,12.7,71,0.00,CLR,,0.84,WeatherDisplay:10.37,2013-09-11 12:57:00,
2013-09-11 15:02:00,75.6,65.1,30.15,ENE,57,12.0,12.0,70,0.00,CLR,,0.84,WeatherDisplay:10.37,2013-09-11 13:02:00,
2013-09-11 15:07:00,75.8,65.3,30.15,NNE,26,10.4,10.4,70,0.00,CLR,,0.84,WeatherDisplay:10.37,2013-09-11 13:07:00,
2013-09-11 15:12:00,75.5,65.0,30.15,NE,52,10.4,10.4,70,0.00,CLR,,0.84,WeatherDisplay:10.37,2013-09-11 13:12:00,
2013-09-11 15:17:00,75.8,65.3,30.15,ENE,67,11.5,11.5,70,0.00,CLR,,0.84,WeatherDisplay:10.37,2013-09-11 13:17:00,
2013-09-11 15:22:00,75.6,65.1,30.14,NE,54,12.7,12.7,70,0.00,CLR,,0.84,WeatherDisplay:10.37,2013-09-11 13:22:00,
2013-09-11 15:27:00,75.5,65.4,30.14,NNE,22,12.0,12.0,71,0.00,CLR,,0.84,WeatherDisplay:10.37,2013-09-11 13:27:00,
2013-09-11 15:32:00,75.7,65.6,30.14,ENE,72,11.5,11.5,71,0.00,CLR,,0.84,WeatherDisplay:10.37,2013-09-11 13:32:00,
2013-09-11 15:37:00,75.6,64.7,30.14,ENE,62,11.5,11.5,69,0.00,CLR,,0.84,WeatherDisplay:10.37,2013-09-11 13:37:00,
2013-09-11 15:42:00,75.4,65.3,30.14,ENE,65,10.4,10.4,71,0.00,CLR,,0.84,WeatherDisplay:10.37,2013-09-11 13:42:00,
2013-09-11 15:47:00,75.0,65.0,30.14,SE,134,12.7,12.7,71,0.00,CLR,,0.84,WeatherDisplay:10.37,2013-09-11 13:47:00,
2013-09-11 15:52:00,74.6,64.6,30.14,NNE,29,10.4,10.4,71,0.00,CLR,,0.84,WeatherDisplay:10.37,2013-09-11 13:52:00,
2013-09-11 15:57:00,74.3,64.7,30.14,NE,35,12.7,12.7,72,0.00,CLR,,0.84,WeatherDisplay:10.37,2013-09-11 13:57:00,
2013-09-11 16:02:00,74.1,64.1,30.14,NNE,25,12.7,12.7,71,0.00,CLR,,0.84,WeatherDisplay:10.37,2013-09-11 14:02:00,
2013-09-11 16:07:00,73.6,63.2,30.14,NNE,24,12.7,12.7,70,0.00,CLR,,0.84,WeatherDisplay:10.37,2013-09-11 14:07:00,
2013-09-11 16:12:00,73.4,63.0,30.14,ENE,75,12.7,12.7,70,0.00,CLR,,0.84,WeatherDisplay:10.37,2013-09-11 14:12:00,
2013-09-11 16:17:00,73.3,62.9,30.14,ENE,78,10.4,10.4,70,0.00,CLR,,0.84,WeatherDisplay:10.37,2013-09-11 14:17:00,
2013-09-11 16:22:00,73.0,62.6,30.14,ENE,69,13.8,13.8,70,0.00,CLR,,0.84,WeatherDisplay:10.37,2013-09-11 14:22:00,
2013-09-11 16:27:00,72.7,62.8,30.14,NNE,17,13.8,13.8,71,0.00,CLR,,0.84,WeatherDisplay:10.37,2013-09-11 14:27:00,
2013-09-11 16:32:00,72.6,62.3,30.14,NE,36,17.3,17.3,70,0.00,CLR,,0.84,WeatherDisplay:10.37,2013-09-11 14:32:00,
2013-09-11 16:37:00,72.5,62.6,30.14,NE,52,11.5,11.5,71,0.00,CLR,,0.84,WeatherDisplay:10.37,2013-09-11 14:37:00,
2013-09-11 16:42:00,72.3,62.0,30.13,NE,38,16.1,16.1,70,0.00,CLR,,0.84,WeatherDisplay:10.37,2013-09-11 14:42:00,
2013-09-11 16:47:00,72.1,62.2,30.13,ENE,59,13.8,13.8,71,0.00,CLR,,0.84,WeatherDisplay:10.37,2013-09-11 14:47:00,
2013-09-11 16:52:00,72.1,62.2,30.13,East,90,13.8,13.8,71,0.00,CLR,,0.84,WeatherDisplay:10.37,2013-09-11 14:52:00,
2013-09-11 16:57:00,72.0,61.7,30.13,NE,45,13.8,13.8,70,0.00,CLR,,0.84,WeatherDisplay:10.37,2013-09-11 14:57:00,
2013-09-11 17:02:00,71.9,61.6,30.13,NNE,28,12.7,12.7,70,0.00,CLR,,0.84,WeatherDisplay:10.37,2013-09-11 15:02:00,
2013-09-11 17:07:00,71.9,61.6,30.13,NE,44,16.1,16.1,70,0.00,CLR,,0.84,WeatherDisplay:10.37,2013-09-11 15:07:00,
2013-09-11 17:12:00,71.9,61.6,30.13,NE,44,17.3,17.3,70,0.00,CLR,,0.84,WeatherDisplay:10.37,2013-09-11 15:12:00,
2013-09-11 17:17:00,72.0,61.7,30.14,ENE,66,12.7,12.7,70,0.00,CLR,,0.84,WeatherDisplay:10.37,2013-09-11 15:17:00,
2013-09-11 17:22:00,71.9,61.6,30.14,NE,43,15.0,15.0,70,0.00,CLR,,0.84,WeatherDisplay:10.37,2013-09-11 15:22:00,
2013-09-11 17:27:00,71.9,61.6,30.14,ENE,73,16.1,16.1,70,0.00,CLR,,0.84,WeatherDisplay:10.37,2013-09-11 15:27:00,
2013-09-11 17:32:00,71.8,61.5,30.14,ENE,62,15.0,15.0,70,0.00,CLR,,0.84,WeatherDisplay:10.37,2013-09-11 15:32:00,
2013-09-11 17:37:00,71.8,61.5,30.13,North,9,12.7,12.7,70,0.00,CLR,,0.84,WeatherDisplay:10.37,2013-09-11 15:37:00,
2013-09-11 17:42:00,71.6,61.3,30.13,NNE,33,15.0,15.0,70,0.00,CLR,,0.84,WeatherDisplay:10.37,2013-09-11 15:42:00,
2013-09-11 17:47:00,71.5,61.6,30.13,ENE,63,15.0,15.0,71,0.00,CLR,,0.84,WeatherDisplay:10.37,2013-09-11 15:47:00,
2013-09-11 17:52:00,71.5,61.6,30.13,ENE,64,13.8,13.8,71,0.00,CLR,,0.84,WeatherDisplay:10.37,2013-09-11 15:52:00,
2013-09-11 17:57:00,71.5,61.6,30.12,ENE,76,11.5,11.5,71,0.00,CLR,,0.84,WeatherDisplay:10.37,2013-09-11 15:57:00,
2013-09-11 18:02:00,71.5,61.6,30.12,ENE,74,9.2,9.2,71,0.00,CLR,,0.84,WeatherDisplay:10.37,2013-09-11 16:02:00,
2013-09-11 18:07:00,71.4,61.5,30.13,NNE,28,9.2,9.2,71,0.00,CLR,,0.84,WeatherDisplay:10.37,2013-09-11 16:07:00,
2013-09-11 18:12:00,71.4,61.1,30.14,NNE,30,15.0,15.0,70,0.00,CLR,,0.84,WeatherDisplay:10.37,2013-09-11 16:12:00,
2013-09-11 18:17:00,71.3,61.0,30.13,North,11,15.0,15.0,70,0.00,CLR,,0.84,WeatherDisplay:10.37,2013-09-11 16:17:00,
2013-09-11 18:22:00,71.2,60.9,30.12,ENE,59,17.3,17.3,70,0.00,CLR,,0.84,WeatherDisplay:10.37,2013-09-11 16:22:00,
2013-09-11 18:27:00,71.2,61.3,30.12,NE,53,13.8,13.8,71,0.00,CLR,,0.84,WeatherDisplay:10.37,2013-09-11 16:27:00,
2013-09-11 18:32:00,71.1,61.2,30.12,NE,52,12.7,12.7,71,0.00,CLR,,0.84,WeatherDisplay:10.37,2013-09-11 16:32:00,
2013-09-11 18:37:00,71.0,61.1,30.12,East,92,19.6,19.6,71,0.00,CLR,,0.84,WeatherDisplay:10.37,2013-09-11 16:37:00,
2013-09-11 18:42:00,70.9,61.0,30.14,North,9,11.5,11.5,71,0.00,CLR,,0.84,WeatherDisplay:10.37,2013-09-11 16:42:00,
2013-09-11 18:47:00,70.9,61.0,30.15,WNW,292,13.8,13.8,71,0.00,CLR,,0.84,WeatherDisplay:10.37,2013-09-11 16:47:00,
2013-09-11 18:52:00,70.4,61.7,30.16,NNW,344,17.3,17.3,74,0.02,RA,,0.87,WeatherDisplay:10.37,2013-09-11 16:52:00,
2013-09-11 18:57:00,68.6,62.2,30.16,NNE,28,7.0,7.0,80,0.09,RA,,0.94,WeatherDisplay:10.37,2013-09-11 16:57:00,
2013-09-11 19:02:00,67.1,61.8,30.16,NE,42,11.5,11.5,83,0.15,RA,,1.02,WeatherDisplay:10.37,2013-09-11 17:02:00,
2013-09-11 19:07:00,66.0,61.7,30.17,NNE,18,10.4,10.4,86,0.25,RA,,1.10,WeatherDisplay:10.37,2013-09-11 17:07:00,
2013-09-11 19:12:00,65.6,61.9,30.16,NE,48,5.8,5.8,88,0.27,RA,,1.11,WeatherDisplay:10.37,2013-09-11 17:12:00,
2013-09-11 19:17:00,65.4,61.8,30.16,East,89,8.1,8.1,88,0.28,RA,,1.13,WeatherDisplay:10.37,2013-09-11 17:17:00,
2013-09-11 19:22:00,65.3,62.0,30.17,ENE,64,6.9,6.9,89,0.28,RA,,1.13,WeatherDisplay:10.37,2013-09-11 17:22:00,
2013-09-11 19:27:00,65.3,62.0,30.16,NE,55,8.1,8.1,89,0.30,RA,,1.14,WeatherDisplay:10.37,2013-09-11 17:27:00,
2013-09-11 19:32:00,65.3,62.0,30.16,NE,53,8.1,8.1,89,0.30,RA,,1.14,WeatherDisplay:10.37,2013-09-11 17:32:00,
2013-09-11 19:37:00,65.4,62.4,30.16,NE,49,6.9,6.9,90,0.30,RA,,1.14,WeatherDisplay:10.37,2013-09-11 17:37:00,
2013-09-11 19:42:00,65.6,62.6,30.16,NE,36,5.8,5.8,90,0.30,CLR,,1.14,WeatherDisplay:10.37,2013-09-11 17:42:00,
2013-09-11 19:47:00,65.6,62.6,30.16,ENE,74,3.5,3.5,90,0.30,CLR,,1.14,WeatherDisplay:10.37,2013-09-11 17:47:00,
2013-09-11 19:52:00,65.7,62.4,30.16,NNE,12,3.5,3.5,89,0.30,CLR,,1.14,WeatherDisplay:10.37,2013-09-11 17:52:00,
2013-09-11 19:57:00,65.7,62.4,30.16,NNE,33,4.6,4.6,89,0.30,CLR,,1.14,WeatherDisplay:10.37,2013-09-11 17:57:00,
2013-09-11 20:02:00,65.8,62.5,30.16,NE,37,5.8,5.8,89,0.30,CLR,,1.14,WeatherDisplay:10.37,2013-09-11 18:02:00,
2013-09-11 20:07:00,65.9,62.6,30.15,NNE,24,6.9,6.9,89,0.28,CLR,,1.14,WeatherDisplay:10.37,2013-09-11 18:07:00,
2013-09-11 20:12:00,66.0,62.7,30.15,NNE,29,3.5,3.5,89,0.21,CLR,,1.14,WeatherDisplay:10.37,2013-09-11 18:12:00,
2013-09-11 20:17:00,66.0,62.7,30.16,NNE,22,3.5,3.5,89,0.15,CLR,,1.14,WeatherDisplay:10.37,2013-09-11 18:17:00,
2013-09-11 20:22:00,66.0,62.7,30.16,NNE,14,4.6,4.6,89,0.05,CLR,,1.14,WeatherDisplay:10.37,2013-09-11 18:22:00,
2013-09-11 20:27:00,65.9,62.6,30.16,NNE,17,5.8,5.8,89,0.03,CLR,,1.14,WeatherDisplay:10.37,2013-09-11 18:27:00,
2013-09-11 20:32:00,65.9,62.6,30.16,NNE,17,3.5,3.5,89,0.02,CLR,,1.14,WeatherDisplay:10.37,2013-09-11 18:32:00,
2013-09-11 20:37:00,66.1,62.4,30.16,NNE,20,4.6,4.6,88,0.02,CLR,,1.14,WeatherDisplay:10.37,2013-09-11 18:37:00,
2013-09-11 20:42:00,66.1,62.4,30.16,NE,38,2.3,2.3,88,0.00,CLR,,1.14,WeatherDisplay:10.37,2013-09-11 18:42:00,
2013-09-11 20:47:00,66.2,62.2,30.17,NE,39,4.6,4.6,87,0.00,CLR,,1.14,WeatherDisplay:10.37,2013-09-11 18:47:00,
2013-09-11 20:52:00,66.4,62.1,30.16,NE,34,4.6,4.6,86,0.00,CLR,,1.14,WeatherDisplay:10.37,2013-09-11 18:52:00,
2013-09-11 20:57:00,66.4,62.1,30.17,NNE,16,3.5,3.5,86,0.00,CLR,,1.14,WeatherDisplay:10.37,2013-09-11 18:57:00,
2013-09-11 21:02:00,66.5,62.2,30.17,NE,37,4.6,4.6,86,0.00,CLR,,1.14,WeatherDisplay:10.37,2013-09-11 19:02:00,
2013-09-11 21:07:00,66.5,61.8,30.17,NNE,32,5.8,5.8,85,0.00,CLR,,1.14,WeatherDisplay:10.37,2013-09-11 19:07:00,
2013-09-11 21:12:00,66.5,61.8,30.17,NNE,29,5.8,5.8,85,0.00,CLR,,1.14,WeatherDisplay:10.37,2013-09-11 19:12:00,
2013-09-11 21:17:00,66.5,61.8,30.17,NNE,32,3.5,4.5,85,0.00,CLR,,1.14,WeatherDisplay:10.37,2013-09-11 19:17:00,
2013-09-11 21:22:00,66.5,61.5,30.17,NE,36,8.1,8.1,84,0.00,CLR,,1.14,WeatherDisplay:10.37,2013-09-11 19:22:00,
2013-09-11 21:27:00,66.6,61.6,30.17,NNE,28,8.1,8.1,84,0.00,CLR,,1.14,WeatherDisplay:10.37,2013-09-11 19:27:00,
2013-09-11 21:32:00,66.5,61.2,30.18,NNE,28,4.6,4.6,83,0.00,CLR,,1.14,WeatherDisplay:10.37,2013-09-11 19:32:00,
2013-09-11 21:37:00,66.5,61.5,30.18,NNE,19,3.5,3.5,84,0.00,CLR,,1.14,WeatherDisplay:10.37,2013-09-11 19:37:00,
2013-09-11 21:42:00,66.4,61.4,30.18,NE,42,4.0,4.0,84,0.00,CLR,,1.14,WeatherDisplay:10.37,2013-09-11 19:42:00,
2013-09-11 21:47:00,66.4,61.4,30.18,NE,42,3.5,3.5,84,0.00,CLR,,1.14,WeatherDisplay:10.37,2013-09-11 19:47:00,
2013-09-11 21:52:00,66.4,61.4,30.18,NNE,16,3.5,3.5,84,0.00,CLR,,1.14,WeatherDisplay:10.37,2013-09-11 19:52:00,
2013-09-11 21:57:00,66.2,61.2,30.18,NNE,27,2.3,2.3,84,0.00,CLR,,1.14,WeatherDisplay:10.37,2013-09-11 19:57:00,
2013-09-11 22:02:00,66.1,61.1,30.18,NNE,15,4.0,4.0,84,0.00,CLR,,1.14,WeatherDisplay:10.37,2013-09-11 20:02:00,
2013-09-11 22:07:00,66.1,61.1,30.18,North,5,5.8,5.8,84,0.00,CLR,,1.14,WeatherDisplay:10.37,2013-09-11 20:07:00,
2013-09-11 22:12:00,66.1,61.1,30.18,NE,43,4.6,4.6,84,0.00,CLR,,1.14,WeatherDisplay:10.37,2013-09-11 20:12:00,
2013-09-11 22:17:00,66.1,61.1,30.18,NNE,15,4.0,4.0,84,0.00,CLR,,1.14,WeatherDisplay:10.37,2013-09-11 20:17:00,
2013-09-11 22:22:00,66.1,61.1,30.18,NE,40,3.5,3.5,84,0.00,CLR,,1.14,WeatherDisplay:10.37,2013-09-11 20:22:00,
2013-09-11 22:27:00,66.0,61.0,30.18,NE,34,3.5,3.5,84,0.00,CLR,,1.14,WeatherDisplay:10.37,2013-09-11 20:27:00,
2013-09-11 22:32:00,65.9,60.9,30.19,North,350,3.5,3.5,84,0.00,CLR,,1.14,WeatherDisplay:10.37,2013-09-11 20:32:00,
2013-09-11 22:37:00,65.9,60.9,30.19,NNW,340,4.0,4.0,84,0.00,CLR,,1.14,WeatherDisplay:10.37,2013-09-11 20:37:00,
2013-09-11 22:42:00,66.0,61.4,30.19,NNW,331,2.3,2.3,85,0.00,CLR,,1.14,WeatherDisplay:10.37,2013-09-11 20:42:00,
2013-09-11 22:47:00,65.9,60.9,30.19,NNW,347,3.5,3.5,84,0.00,CLR,,1.14,WeatherDisplay:10.37,2013-09-11 20:47:00,
2013-09-11 22:52:00,65.9,60.9,30.19,NNE,20,3.5,3.5,84,0.00,CLR,,1.14,WeatherDisplay:10.37,2013-09-11 20:52:00,
2013-09-11 22:57:00,65.9,61.3,30.19,NNE,21,0.0,0.2,85,0.00,CLR,,1.14,WeatherDisplay:10.37,2013-09-11 20:57:00,
2013-09-11 23:02:00,65.9,61.3,30.19,NNE,16,2.3,2.3,85,0.00,CLR,,1.14,WeatherDisplay:10.37,2013-09-11 21:02:00,
2013-09-11 23:07:00,65.9,61.3,30.19,NNW,332,3.5,3.5,85,0.00,CLR,,1.14,WeatherDisplay:10.37,2013-09-11 21:07:00,
2013-09-11 23:13:00,66.0,61.4,30.19,NNE,22,3.5,3.5,85,0.00,CLR,,1.14,WeatherDisplay:10.37,2013-09-11 21:13:00,
2013-09-11 23:18:00,66.1,61.1,30.20,North,360,3.5,3.5,84,0.00,CLR,,1.14,WeatherDisplay:10.37,2013-09-11 21:18:00,
2013-09-11 23:23:00,66.1,61.1,30.20,North,360,2.3,2.3,84,0.00,CLR,,1.14,WeatherDisplay:10.37,2013-09-11 21:23:00,
2013-09-11 23:28:00,66.2,61.2,30.20,North,5,2.3,2.3,84,0.00,CLR,,1.14,WeatherDisplay:10.37,2013-09-11 21:28:00,
2013-09-11 23:33:00,66.3,61.3,30.20,North,5,2.3,2.3,84,0.00,CLR,,1.14,WeatherDisplay:10.37,2013-09-11 21:33:00,
2013-09-11 23:38:00,66.3,61.3,30.20,North,5,2.3,2.3,84,0.00,CLR,,1.14,WeatherDisplay:10.37,2013-09-11 21:38:00,
2013-09-11 23:43:00,66.2,61.2,30.20,North,5,2.3,2.3,84,0.00,CLR,,1.14,WeatherDisplay:10.37,2013-09-11 21:43:00,
2013-09-11 23:48:00,66.3,61.3,30.20,NNE,29,1.2,1.2,84,0.00,CLR,,1.14,WeatherDisplay:10.37,2013-09-11 21:48:00,
2013-09-11 23:53:00,66.2,61.2,30.20,North,5,2.3,2.3,84,0.00,CLR,,1.14,WeatherDisplay:10.37,2013-09-11 21:53:00,
2013-09-11 23:58:00,66.1,61.1,30.20,NNW,347,0.0,0.0,84,0.00,CLR,,1.14,WeatherDisplay:10.37,2013-09-11 21:58:00,